createdAt,value
2022-10-06T00:01:11.849Z,12.90
2022-10-06T00:03:39.139Z,12.80
2022-10-06T00:06:06.567Z,12.80
2022-10-06T00:08:34.809Z,12.80
2022-10-06T00:11:02.167Z,12.80
2022-10-06T00:13:29.774Z,12.80
2022-10-06T00:15:57.298Z,12.80
2022-10-06T00:18:24.434Z,12.70
2022-10-06T00:20:55.896Z,12.80
2022-10-06T00:23:23.415Z,12.70
2022-10-06T00:25:50.632Z,12.70
2022-10-06T00:28:17.878Z,12.70
2022-10-06T00:30:46.220Z,12.70
2022-10-06T00:33:14.696Z,13.40
2022-10-06T00:35:42.100Z,12.60
2022-10-06T00:38:10.801Z,12.60
2022-10-06T00:40:42.561Z,12.80
2022-10-06T00:43:28.406Z,12.50
2022-10-06T00:45:55.514Z,12.50
2022-10-06T00:48:24.037Z,12.50
2022-10-06T00:50:52.792Z,13.20
2022-10-06T00:53:20.724Z,12.50
2022-10-06T00:55:47.812Z,12.30
2022-10-06T00:58:14.956Z,12.50
2022-10-06T01:00:43.679Z,12.40
2022-10-06T01:03:13.231Z,12.40
2022-10-06T01:05:43.049Z,12.40
2022-10-06T01:08:10.149Z,12.40
2022-10-06T01:10:37.346Z,12.50
2022-10-06T01:13:04.919Z,12.50
2022-10-06T01:15:34.054Z,12.40
2022-10-06T01:18:04.264Z,12.30
2022-10-06T01:20:32.079Z,12.30
2022-10-06T01:23:25.254Z,12.30
2022-10-06T01:25:52.759Z,12.30
2022-10-06T01:28:19.860Z,11.20
2022-10-06T01:30:54.062Z,12.40
2022-10-06T01:33:24.334Z,12.30
2022-10-06T01:35:52.771Z,12.20
2022-10-06T01:38:20.342Z,12.30
2022-10-06T01:40:48.248Z,12.30
2022-10-06T01:43:15.376Z,12.30
2022-10-06T01:45:42.509Z,12.20
2022-10-06T01:48:09.638Z,12.20
2022-10-06T01:50:36.676Z,12.20
2022-10-06T01:53:03.751Z,12.20
2022-10-06T01:55:30.818Z,12.20
2022-10-06T01:57:57.890Z,12.10
2022-10-06T02:00:24.953Z,12.00
2022-10-06T02:02:52.211Z,12.00
2022-10-06T02:05:19.403Z,12.10
2022-10-06T02:07:46.503Z,11.90
2022-10-06T02:10:13.608Z,11.90
2022-10-06T02:12:40.816Z,11.90
2022-10-06T02:15:10.617Z,11.90
2022-10-06T02:17:38.321Z,11.80
2022-10-06T02:20:06.158Z,11.90
2022-10-06T02:22:37.088Z,11.90
2022-10-06T02:25:04.274Z,11.80
2022-10-06T02:27:31.468Z,11.80
2022-10-06T02:29:58.536Z,11.90
2022-10-06T02:32:32.201Z,11.70
2022-10-06T02:35:00.249Z,11.90
2022-10-06T02:37:27.292Z,11.80
2022-10-06T02:39:54.340Z,11.90
2022-10-06T02:42:21.450Z,11.80
2022-10-06T02:44:50.394Z,11.80
2022-10-06T02:47:17.605Z,11.70
2022-10-06T02:49:45.387Z,11.70
2022-10-06T02:52:12.485Z,11.60
2022-10-06T02:54:39.551Z,11.70
2022-10-06T02:57:06.612Z,11.70
2022-10-06T02:59:34.132Z,11.60
2022-10-06T03:02:02.353Z,11.60
2022-10-06T03:04:34.553Z,11.60
2022-10-06T03:07:01.861Z,11.50
2022-10-06T03:09:28.942Z,11.50
2022-10-06T03:11:55.994Z,11.50
2022-10-06T03:14:23.240Z,11.50
2022-10-06T03:16:54.891Z,11.60
2022-10-06T03:19:22.128Z,11.50
2022-10-06T03:21:49.568Z,11.60
2022-10-06T03:24:17.099Z,11.50
2022-10-06T03:26:45.560Z,11.60
2022-10-06T03:29:12.922Z,11.60
2022-10-06T03:31:40.413Z,11.50
2022-10-06T03:34:07.602Z,11.50
2022-10-06T03:36:35.559Z,11.50
2022-10-06T03:39:04.027Z,11.50
2022-10-06T03:41:32.134Z,11.50
2022-10-06T03:43:59.781Z,11.60
2022-10-06T03:46:28.229Z,11.50
2022-10-06T03:48:57.202Z,11.50
2022-10-06T03:51:29.683Z,11.50
2022-10-06T03:53:57.192Z,11.50
2022-10-06T03:56:25.643Z,11.50
2022-10-06T03:58:54.392Z,11.40
2022-10-06T04:01:26.705Z,11.40
2022-10-06T04:03:55.249Z,11.40
2022-10-06T04:06:23.101Z,11.30
2022-10-06T04:08:51.133Z,12.20
2022-10-06T04:11:21.085Z,11.30
2022-10-06T04:13:48.905Z,11.30
2022-10-06T04:16:17.677Z,12.40
2022-10-06T04:18:55.250Z,11.30
2022-10-06T04:21:22.818Z,11.30
2022-10-06T04:23:51.976Z,11.30
2022-10-06T04:26:19.606Z,11.30
2022-10-06T04:28:46.939Z,11.30
2022-10-06T04:31:22.489Z,11.20
2022-10-06T04:33:56.941Z,11.20
2022-10-06T04:36:25.377Z,11.20
2022-10-06T04:38:59.232Z,11.10
2022-10-06T04:41:27.421Z,11.20
2022-10-06T04:43:54.863Z,11.20
2022-10-06T04:46:43.197Z,11.10
2022-10-06T04:49:12.381Z,11.20
2022-10-06T04:51:44.861Z,11.20
2022-10-06T04:54:11.983Z,11.10
2022-10-06T04:56:39.083Z,11.10
2022-10-06T04:59:06.203Z,11.10
2022-10-06T05:01:35.807Z,11.50
2022-10-06T05:04:07.343Z,11.00
2022-10-06T05:06:36.623Z,11.00
2022-10-06T05:09:05.173Z,11.00
2022-10-06T05:11:33.288Z,11.00
2022-10-06T05:14:00.566Z,10.90
2022-10-06T05:16:28.795Z,12.20
2022-10-06T05:18:59.468Z,10.90
2022-10-06T05:21:31.141Z,10.90
2022-10-06T05:23:58.610Z,10.90
2022-10-06T05:26:27.002Z,10.90
2022-10-06T05:28:54.456Z,10.90
2022-10-06T05:31:28.449Z,10.90
2022-10-06T05:33:56.318Z,10.80
2022-10-06T05:36:24.805Z,10.90
2022-10-06T05:38:51.897Z,10.80
2022-10-06T05:41:24.068Z,10.80
2022-10-06T05:43:51.381Z,10.90
2022-10-06T05:46:24.961Z,10.80
2022-10-06T05:48:55.604Z,10.80
2022-10-06T05:51:27.921Z,10.90
2022-10-06T05:53:57.672Z,10.90
2022-10-06T05:56:26.606Z,11.00
2022-10-06T05:58:54.544Z,10.80
2022-10-06T06:01:23.186Z,10.90
2022-10-06T06:03:51.366Z,10.90
2022-10-06T06:06:25.692Z,10.90
2022-10-06T06:09:00.121Z,10.80
2022-10-06T06:11:28.308Z,10.80
2022-10-06T06:13:59.615Z,10.80
2022-10-06T06:16:27.373Z,10.80
2022-10-06T06:18:54.538Z,10.80
2022-10-06T06:21:21.791Z,10.70
2022-10-06T06:23:49.222Z,10.70
2022-10-06T06:26:23.618Z,10.70
2022-10-06T06:28:51.516Z,10.70
2022-10-06T06:31:29.661Z,10.70
2022-10-06T06:33:57.466Z,10.70
2022-10-06T06:36:28.434Z,10.80
2022-10-06T06:38:56.824Z,10.70
2022-10-06T06:41:24.938Z,10.50
2022-10-06T06:43:52.997Z,11.20
2022-10-06T06:46:25.062Z,10.70
2022-10-06T06:48:52.714Z,10.70
2022-10-06T06:51:23.085Z,10.70
2022-10-06T06:53:50.724Z,10.70
2022-10-06T06:56:17.791Z,10.70
2022-10-06T06:58:47.590Z,11.70
2022-10-06T07:01:16.314Z,10.70
2022-10-06T07:03:57.119Z,10.70
2022-10-06T07:06:28.977Z,10.70
2022-10-06T07:08:57.615Z,10.80
2022-10-06T07:11:29.606Z,10.80
2022-10-06T07:13:58.514Z,10.80
2022-10-06T07:16:43.989Z,10.80
2022-10-06T07:19:30.148Z,10.80
2022-10-06T07:22:20.308Z,10.90
2022-10-06T07:25:05.820Z,10.90
2022-10-06T07:27:34.313Z,10.90
2022-10-06T07:30:01.587Z,11.00
2022-10-06T07:32:30.904Z,11.00
2022-10-06T07:34:58.779Z,11.00
2022-10-06T07:37:26.033Z,11.10
2022-10-06T07:39:53.106Z,11.10
2022-10-06T07:42:20.557Z,11.20
2022-10-06T07:45:07.869Z,11.20
2022-10-06T07:47:37.347Z,10.30
2022-10-06T07:50:08.169Z,11.30
2022-10-06T07:52:39.358Z,11.30
2022-10-06T07:55:06.830Z,11.30
2022-10-06T07:57:35.245Z,11.40
2022-10-06T08:00:05.562Z,11.50
2022-10-06T08:02:35.580Z,11.50
2022-10-06T08:05:04.037Z,11.60
2022-10-06T08:07:31.220Z,11.60
2022-10-06T08:09:58.309Z,11.70
2022-10-06T08:12:34.676Z,11.70
2022-10-06T08:15:07.008Z,11.80
2022-10-06T08:17:36.101Z,11.80
2022-10-06T08:20:04.725Z,11.90
2022-10-06T08:22:31.994Z,11.90
2022-10-06T08:25:06.286Z,11.80
2022-10-06T08:27:35.343Z,12.00
2022-10-06T08:30:04.484Z,12.10
2022-10-06T08:32:32.931Z,12.10
2022-10-06T08:35:00.089Z,12.20
2022-10-06T08:37:28.437Z,12.20
2022-10-06T08:39:55.876Z,12.30
2022-10-06T08:42:22.887Z,12.30
2022-10-06T08:44:56.804Z,12.30
2022-10-06T08:47:24.539Z,12.40
2022-10-06T08:49:52.873Z,12.40
2022-10-06T08:52:22.997Z,12.50
2022-10-06T08:55:02.104Z,12.40
2022-10-06T08:57:38.748Z,12.20
2022-10-06T09:00:23.873Z,12.60
2022-10-06T09:02:51.174Z,12.60
2022-10-06T09:05:25.237Z,13.30
2022-10-06T09:08:12.459Z,12.80
2022-10-06T09:10:57.661Z,12.80
2022-10-06T09:13:28.581Z,12.80
2022-10-06T09:15:58.997Z,12.90
2022-10-06T09:18:49.270Z,12.90
2022-10-06T09:21:19.422Z,13.00
2022-10-06T09:23:53.324Z,13.00
2022-10-06T09:26:22.525Z,13.10
2022-10-06T09:28:50.216Z,13.10
2022-10-06T09:31:17.374Z,13.20
2022-10-06T09:33:44.524Z,13.20
2022-10-06T09:36:12.446Z,13.30
2022-10-06T09:38:47.747Z,13.30
2022-10-06T09:41:15.300Z,13.40
2022-10-06T09:43:52.430Z,13.40
2022-10-06T09:46:20.541Z,13.50
2022-10-06T09:48:47.844Z,13.50
2022-10-06T09:51:15.033Z,13.60
2022-10-06T09:53:43.164Z,13.60
2022-10-06T09:56:19.848Z,13.60
2022-10-06T09:58:54.336Z,13.60
2022-10-06T10:01:23.599Z,14.60
2022-10-06T10:04:15.438Z,13.80
2022-10-06T10:06:40.221Z,13.80
2022-10-06T10:09:25.903Z,13.80
2022-10-06T10:12:18.896Z,13.90
2022-10-06T10:14:46.030Z,14.00
2022-10-06T10:17:33.371Z,14.00
2022-10-06T10:20:01.398Z,14.00
2022-10-06T10:22:35.967Z,14.10
2022-10-06T10:25:28.904Z,14.20
2022-10-06T10:28:05.151Z,14.20
2022-10-06T10:30:33.521Z,14.20
2022-10-06T10:33:09.005Z,14.20
2022-10-06T10:35:38.869Z,14.20
2022-10-06T10:38:15.635Z,14.30
2022-10-06T10:40:48.139Z,14.30
2022-10-06T10:43:22.243Z,14.40
2022-10-06T10:45:57.861Z,14.40
2022-10-06T10:48:24.873Z,14.40
2022-10-06T10:50:55.663Z,14.40
2022-10-06T10:53:42.709Z,14.40
2022-10-06T10:56:11.996Z,14.50
2022-10-06T10:58:41.767Z,14.60
2022-10-06T11:01:08.973Z,14.60
2022-10-06T11:03:36.277Z,14.60
2022-10-06T11:06:12.538Z,14.60
2022-10-06T11:08:52.008Z,14.60
2022-10-06T11:11:31.810Z,14.60
2022-10-06T11:13:59.752Z,14.60
2022-10-06T11:16:29.780Z,14.70
2022-10-06T11:19:15.242Z,14.70
2022-10-06T11:21:48.268Z,14.70
2022-10-06T11:24:21.423Z,15.50
2022-10-06T11:26:51.290Z,14.80
2022-10-06T11:29:47.989Z,14.90
2022-10-06T11:32:33.903Z,14.90
2022-10-06T11:35:01.264Z,14.90
2022-10-06T11:37:31.156Z,15.40
2022-10-06T11:40:18.465Z,15.40
2022-10-06T11:42:55.364Z,14.90
2022-10-06T11:45:54.820Z,15.00
2022-10-06T11:48:21.950Z,15.10
2022-10-06T11:50:49.237Z,15.10
2022-10-06T11:53:42.608Z,15.10
2022-10-06T11:56:18.859Z,15.10
2022-10-06T11:58:51.930Z,16.60
2022-10-06T12:01:31.368Z,15.20
2022-10-06T12:04:10.495Z,15.20
2022-10-06T12:06:46.408Z,15.20
2022-10-06T12:09:25.835Z,15.30
2022-10-06T12:11:54.107Z,16.50
2022-10-06T12:16:07.035Z,15.30
2022-10-06T12:17:27.578Z,15.30
2022-10-06T12:20:02.035Z,15.40
2022-10-06T12:22:32.082Z,15.40
2022-10-06T12:25:02.990Z,15.50
2022-10-06T12:27:30.290Z,15.40
2022-10-06T12:30:16.925Z,15.50
2022-10-06T12:32:54.342Z,15.60
2022-10-06T12:35:27.388Z,15.50
2022-10-06T12:37:55.367Z,15.70
2022-10-06T12:40:41.171Z,17.30
2022-10-06T12:43:23.049Z,15.80
2022-10-06T12:45:56.795Z,15.90
2022-10-06T12:48:23.872Z,15.80
2022-10-06T12:51:18.327Z,15.80
2022-10-06T12:53:57.504Z,15.80
2022-10-06T12:56:32.214Z,15.90
2022-10-06T12:59:17.572Z,15.90
2022-10-06T13:01:44.701Z,15.90
2022-10-06T13:04:29.895Z,16.00
2022-10-06T13:06:57.329Z,16.00
2022-10-06T13:09:24.385Z,16.00
2022-10-06T13:11:51.551Z,16.00
2022-10-06T13:14:18.639Z,16.10
2022-10-06T13:16:46.670Z,16.00
2022-10-06T13:19:18.689Z,16.10
2022-10-06T13:21:46.558Z,16.10
2022-10-06T13:24:14.497Z,16.00
2022-10-06T13:26:42.073Z,16.10
2022-10-06T13:29:16.227Z,16.10
2022-10-06T13:31:51.693Z,16.20
2022-10-06T13:34:30.036Z,16.10
2022-10-06T13:36:58.513Z,16.20
2022-10-06T13:39:27.044Z,16.10
2022-10-06T13:41:56.186Z,16.20
2022-10-06T13:44:28.876Z,16.20
2022-10-06T13:46:57.916Z,16.20
2022-10-06T13:49:30.674Z,16.30
2022-10-06T13:52:00.372Z,16.30
2022-10-06T13:54:32.153Z,16.30
2022-10-06T13:56:59.566Z,16.20
2022-10-06T13:59:28.921Z,16.20
2022-10-06T14:01:57.513Z,16.10
2022-10-06T14:04:24.714Z,16.70
2022-10-06T14:06:51.783Z,16.20
2022-10-06T14:09:26.305Z,16.30
2022-10-06T14:11:53.978Z,16.30
2022-10-06T14:14:21.081Z,16.40
2022-10-06T14:16:50.691Z,16.40
2022-10-06T14:19:33.024Z,16.50
2022-10-06T14:22:00.888Z,16.50
2022-10-06T14:24:34.140Z,16.50
2022-10-06T14:27:02.113Z,16.50
2022-10-06T14:29:29.246Z,16.50
2022-10-06T14:32:06.180Z,16.50
2022-10-06T14:34:33.280Z,16.50
2022-10-06T14:37:00.318Z,16.50
2022-10-06T14:39:28.496Z,16.60
2022-10-06T14:41:55.549Z,16.60
2022-10-06T14:44:22.703Z,16.50
2022-10-06T14:46:50.301Z,16.40
2022-10-06T14:49:17.856Z,16.50
2022-10-06T14:51:45.581Z,17.70
2022-10-06T14:54:13.310Z,16.40
2022-10-06T14:56:41.120Z,16.40
2022-10-06T14:59:09.347Z,16.40
2022-10-06T15:01:40.322Z,16.40
2022-10-06T15:04:09.173Z,16.30
2022-10-06T15:06:54.740Z,16.30
2022-10-06T15:09:21.896Z,16.20
2022-10-06T15:11:48.983Z,16.30
2022-10-06T15:14:16.076Z,16.20
2022-10-06T15:16:44.619Z,16.20
2022-10-06T15:19:12.464Z,16.20
2022-10-06T15:21:40.863Z,16.20
2022-10-06T15:24:10.905Z,16.20
2022-10-06T15:26:56.968Z,16.20
2022-10-06T15:29:24.137Z,16.20
2022-10-06T15:31:55.040Z,16.30
2022-10-06T15:34:23.575Z,16.30
2022-10-06T15:36:52.220Z,16.30
2022-10-06T15:39:20.708Z,16.30
2022-10-06T15:41:48.446Z,16.30
2022-10-06T15:44:16.170Z,16.40
2022-10-06T15:46:44.539Z,16.30
2022-10-06T15:49:13.133Z,17.40
2022-10-06T15:51:49.098Z,16.30
2022-10-06T15:54:20.359Z,16.30
2022-10-06T15:56:48.177Z,16.20
2022-10-06T15:59:15.606Z,16.20
2022-10-06T16:01:44.156Z,16.70
2022-10-06T16:04:40.672Z,16.10
2022-10-06T16:07:08.787Z,16.10
2022-10-06T16:09:42.066Z,16.00
2022-10-06T16:12:12.216Z,16.00
2022-10-06T16:14:39.641Z,16.00
2022-10-06T16:17:06.912Z,16.00
2022-10-06T16:19:36.773Z,15.90
2022-10-06T16:22:05.139Z,16.00
2022-10-06T16:24:32.292Z,15.90
2022-10-06T16:27:00.114Z,14.50
2022-10-06T16:29:27.950Z,15.80
2022-10-06T16:31:55.226Z,15.90
2022-10-06T16:34:22.402Z,15.80
2022-10-06T16:36:49.501Z,15.80
2022-10-06T16:39:20.652Z,15.80
2022-10-06T16:41:48.033Z,15.80
2022-10-06T16:44:15.275Z,15.70
2022-10-06T16:46:42.457Z,15.70
2022-10-06T16:49:09.837Z,15.70
2022-10-06T16:51:41.078Z,16.10
2022-10-06T16:54:09.404Z,15.70
2022-10-06T16:56:38.310Z,14.90
2022-10-06T16:59:07.434Z,15.60
2022-10-06T17:01:35.781Z,15.60
2022-10-06T17:04:05.382Z,15.50
2022-10-06T17:06:36.128Z,15.50
2022-10-06T17:09:03.349Z,15.50
2022-10-06T17:11:30.510Z,15.50
2022-10-06T17:14:00.278Z,15.40
2022-10-06T17:16:28.841Z,15.40
2022-10-06T17:18:56.519Z,15.40
2022-10-06T17:21:44.968Z,15.40
2022-10-06T17:24:11.636Z,15.30
2022-10-06T17:26:40.142Z,15.30
2022-10-06T17:29:12.061Z,15.30
2022-10-06T17:31:40.888Z,15.20
2022-10-06T17:34:11.324Z,15.20
2022-10-06T17:36:42.261Z,15.20
2022-10-06T17:39:11.329Z,15.10
2022-10-06T17:41:40.189Z,15.20
2022-10-06T17:44:10.370Z,15.10
2022-10-06T17:46:38.830Z,15.10
2022-10-06T17:49:09.555Z,15.10
2022-10-06T17:51:37.751Z,15.00
2022-10-06T17:54:06.042Z,15.00
2022-10-06T17:56:34.985Z,14.90
2022-10-06T17:59:03.503Z,14.90
2022-10-06T18:01:32.597Z,14.90
2022-10-06T18:04:00.542Z,14.90
2022-10-06T18:06:28.525Z,14.80
2022-10-06T18:08:57.329Z,14.80
2022-10-06T18:11:35.810Z,14.80
2022-10-06T18:14:06.793Z,14.70
2022-10-06T18:16:39.678Z,14.70
2022-10-06T18:19:11.306Z,14.70
2022-10-06T18:21:39.364Z,14.70
2022-10-06T18:24:17.094Z,14.60
2022-10-06T18:26:50.917Z,14.60
2022-10-06T18:29:31.498Z,14.60
2022-10-06T18:32:14.052Z,14.60
2022-10-06T18:36:12.026Z,14.60
2022-10-06T18:37:33.010Z,14.60
2022-10-06T18:40:02.372Z,14.60
2022-10-06T18:42:29.690Z,13.10
2022-10-06T18:45:15.298Z,14.50
2022-10-06T18:48:00.734Z,14.50
2022-10-06T18:50:27.772Z,14.50
2022-10-06T18:52:56.960Z,14.50
2022-10-06T18:55:24.266Z,14.50
2022-10-06T18:57:51.430Z,14.40
2022-10-06T19:00:18.584Z,14.50
2022-10-06T19:02:48.497Z,14.40
2022-10-06T19:05:17.498Z,14.50
2022-10-06T19:07:45.392Z,14.50
2022-10-06T19:10:12.564Z,14.40
2022-10-06T19:12:39.766Z,14.40
2022-10-06T19:15:09.965Z,14.40
2022-10-06T19:17:39.937Z,14.40
2022-10-06T19:20:08.191Z,14.30
2022-10-06T19:22:36.924Z,14.80
2022-10-06T19:25:04.072Z,14.40
2022-10-06T19:27:33.812Z,14.30
2022-10-06T19:30:00.922Z,14.30
2022-10-06T19:32:29.089Z,14.30
2022-10-06T19:34:58.849Z,14.30
2022-10-06T19:37:29.344Z,14.30
2022-10-06T19:39:56.680Z,14.30
2022-10-06T19:42:42.441Z,14.20
2022-10-06T19:45:11.704Z,14.20
2022-10-06T19:47:39.328Z,14.20
2022-10-06T19:50:11.701Z,14.20
2022-10-06T19:52:40.113Z,14.10
2022-10-06T19:55:07.315Z,14.10
2022-10-06T19:57:34.743Z,14.10
2022-10-06T20:00:01.877Z,14.10
2022-10-06T20:02:29.295Z,14.10
2022-10-06T20:04:56.613Z,14.10
2022-10-06T20:07:27.590Z,14.00
2022-10-06T20:09:55.412Z,15.20
2022-10-06T20:12:25.157Z,14.00
2022-10-06T20:14:53.685Z,14.90
2022-10-06T20:17:21.453Z,14.00
2022-10-06T20:19:48.525Z,14.00
2022-10-06T20:22:15.628Z,14.00
2022-10-06T20:24:42.744Z,14.00
2022-10-06T20:27:10.280Z,13.90
2022-10-06T20:29:37.642Z,13.90
2022-10-06T20:32:05.423Z,13.90
2022-10-06T20:34:33.106Z,14.00
2022-10-06T20:37:02.299Z,14.00
2022-10-06T20:39:51.466Z,14.00
2022-10-06T20:42:19.725Z,13.90
2022-10-06T20:44:46.833Z,14.50
2022-10-06T20:47:14.310Z,13.90
2022-10-06T20:49:42.668Z,13.90
2022-10-06T20:52:10.107Z,13.90
2022-10-06T20:54:37.472Z,13.80
2022-10-06T20:57:05.599Z,13.80
2022-10-06T20:59:35.383Z,13.80
2022-10-06T21:02:03.462Z,13.80
2022-10-06T21:04:30.690Z,13.90
2022-10-06T21:06:57.897Z,13.50
2022-10-06T21:09:25.188Z,13.90
2022-10-06T21:11:52.449Z,13.60
2022-10-06T21:14:19.806Z,13.70
2022-10-06T21:16:47.950Z,13.70
2022-10-06T21:19:16.809Z,13.80
2022-10-06T21:21:45.799Z,13.80
2022-10-06T21:24:12.980Z,13.80
2022-10-06T21:26:42.584Z,13.80
2022-10-06T21:29:11.644Z,13.80
2022-10-06T21:31:38.837Z,13.80
2022-10-06T21:34:06.079Z,13.80
2022-10-06T21:36:33.352Z,13.70
2022-10-06T21:39:06.785Z,13.70
2022-10-06T21:41:40.763Z,13.70
2022-10-06T21:44:17.844Z,13.70
2022-10-06T21:46:49.163Z,13.70
2022-10-06T21:49:18.018Z,13.70
2022-10-06T21:51:46.163Z,13.10
2022-10-06T21:54:13.897Z,13.70
2022-10-06T21:56:41.218Z,13.70
2022-10-06T21:59:08.499Z,13.70
2022-10-06T22:01:39.932Z,13.60
2022-10-06T22:04:07.141Z,13.60
2022-10-06T22:06:36.689Z,13.60
2022-10-06T22:09:04.909Z,13.60
2022-10-06T22:11:36.458Z,13.60
2022-10-06T22:14:05.340Z,13.60
2022-10-06T22:16:33.648Z,13.50
2022-10-06T22:19:01.984Z,13.50
2022-10-06T22:21:33.226Z,13.50
2022-10-06T22:24:04.483Z,13.50
2022-10-06T22:26:32.534Z,13.50
2022-10-06T22:28:59.937Z,13.50
2022-10-06T22:31:27.813Z,13.50
2022-10-06T22:33:56.258Z,14.20
2022-10-06T22:36:23.853Z,13.40
2022-10-06T22:38:51.159Z,13.40
2022-10-06T22:41:18.331Z,13.50
2022-10-06T22:43:45.575Z,13.10
2022-10-06T22:46:12.858Z,13.50
2022-10-06T22:48:40.393Z,13.50
2022-10-06T22:51:07.631Z,13.90
2022-10-06T22:53:35.113Z,13.40
2022-10-06T22:56:03.751Z,13.50
2022-10-06T22:58:30.967Z,13.40
2022-10-06T23:00:58.250Z,13.40
2022-10-06T23:03:25.568Z,13.40
2022-10-06T23:06:02.644Z,13.50
2022-10-06T23:08:35.052Z,13.40
2022-10-06T23:11:07.031Z,13.40
2022-10-06T23:13:34.680Z,13.40
2022-10-06T23:16:07.207Z,13.40
2022-10-06T23:18:35.522Z,13.40
2022-10-06T23:21:06.743Z,13.40
2022-10-06T23:23:33.936Z,13.40
2022-10-06T23:26:07.995Z,13.30
2022-10-06T23:28:35.216Z,13.30
2022-10-06T23:31:03.970Z,13.30
2022-10-06T23:33:31.559Z,13.30
2022-10-06T23:35:59.643Z,13.30
2022-10-06T23:38:27.280Z,13.90
2022-10-06T23:40:54.899Z,13.30
2022-10-06T23:43:22.405Z,13.30
2022-10-06T23:45:49.621Z,13.20
2022-10-06T23:48:16.824Z,13.30
2022-10-06T23:50:54.067Z,13.20
2022-10-06T23:53:21.188Z,13.20
2022-10-06T23:55:48.297Z,13.20
2022-10-06T23:58:15.462Z,13.20
